sensor_id;sensor_type;location;lat;lon;timestamp;P1;durP1;ratioP1;P2;durP2;ratioP2
27847;SDS011;15212;48.830;8.730;2023-12-20T00:01:42;1.75;;;0.90;;
27847;SDS011;15212;48.830;8.730;2023-12-20T00:04:10;2.37;;;0.90;;
27847;SDS011;15212;48.830;8.730;2023-12-20T00:06:38;1.17;;;0.70;;
27847;SDS011;15212;48.830;8.730;2023-12-20T00:09:07;3.33;;;0.90;;
27847;SDS011;15212;48.830;8.730;2023-12-20T00:11:36;1.67;;;0.85;;
27847;SDS011;15212;48.830;8.730;2023-12-20T00:14:04;2.67;;;0.98;;
27847;SDS011;15212;48.830;8.730;2023-12-20T00:16:33;2.83;;;0.80;;
27847;SDS011;15212;48.830;8.730;2023-12-20T00:19:01;1.47;;;0.70;;
27847;SDS011;15212;48.830;8.730;2023-12-20T00:21:29;1.98;;;0.70;;
27847;SDS011;15212;48.830;8.730;2023-12-20T00:23:58;2.10;;;0.78;;
27847;SDS011;15212;48.830;8.730;2023-12-20T00:26:26;1.05;;;0.68;;
27847;SDS011;15212;48.830;8.730;2023-12-20T00:28:54;1.12;;;0.78;;
27847;SDS011;15212;48.830;8.730;2023-12-20T00:31:23;1.52;;;0.72;;
27847;SDS011;15212;48.830;8.730;2023-12-20T00:33:51;1.22;;;0.60;;
27847;SDS011;15212;48.830;8.730;2023-12-20T00:36:20;2.05;;;0.68;;
27847;SDS011;15212;48.830;8.730;2023-12-20T00:38:48;0.60;;;0.60;;
27847;SDS011;15212;48.830;8.730;2023-12-20T00:41:17;0.70;;;0.70;;
27847;SDS011;15212;48.830;8.730;2023-12-20T00:43:46;1.32;;;0.65;;
27847;SDS011;15212;48.830;8.730;2023-12-20T00:46:14;1.77;;;0.70;;
27847;SDS011;15212;48.830;8.730;2023-12-20T00:48:43;0.72;;;0.60;;
27847;SDS011;15212;48.830;8.730;2023-12-20T00:51:11;0.60;;;0.60;;
27847;SDS011;15212;48.830;8.730;2023-12-20T00:53:40;1.00;;;0.68;;
27847;SDS011;15212;48.830;8.730;2023-12-20T00:56:09;1.35;;;0.60;;
27847;SDS011;15212;48.830;8.730;2023-12-20T00:58:37;0.62;;;0.50;;
27847;SDS011;15212;48.830;8.730;2023-12-20T01:01:06;0.80;;;0.50;;
27847;SDS011;15212;48.830;8.730;2023-12-20T01:03:34;2.70;;;0.50;;
27847;SDS011;15212;48.830;8.730;2023-12-20T01:06:02;0.90;;;0.60;;
27847;SDS011;15212;48.830;8.730;2023-12-20T01:08:31;0.50;;;0.50;;
27847;SDS011;15212;48.830;8.730;2023-12-20T01:11:03;0.50;;;0.42;;
27847;SDS011;15212;48.830;8.730;2023-12-20T01:13:33;1.20;;;0.60;;
27847;SDS011;15212;48.830;8.730;2023-12-20T01:16:02;0.30;;;0.30;;
27847;SDS011;15212;48.830;8.730;2023-12-20T01:18:31;0.88;;;0.40;;
27847;SDS011;15212;48.830;8.730;2023-12-20T01:21:03;0.40;;;0.40;;
27847;SDS011;15212;48.830;8.730;2023-12-20T01:23:32;0.45;;;0.40;;
27847;SDS011;15212;48.830;8.730;2023-12-20T01:26:00;0.80;;;0.50;;
27847;SDS011;15212;48.830;8.730;2023-12-20T01:28:30;0.50;;;0.40;;
27847;SDS011;15212;48.830;8.730;2023-12-20T01:30:58;1.30;;;0.40;;
27847;SDS011;15212;48.830;8.730;2023-12-20T01:33:27;0.30;;;0.30;;
27847;SDS011;15212;48.830;8.730;2023-12-20T01:35:55;1.40;;;0.40;;
27847;SDS011;15212;48.830;8.730;2023-12-20T01:38:23;0.30;;;0.30;;
27847;SDS011;15212;48.830;8.730;2023-12-20T01:40:52;1.20;;;0.40;;
27847;SDS011;15212;48.830;8.730;2023-12-20T01:43:21;1.85;;;0.50;;
27847;SDS011;15212;48.830;8.730;2023-12-20T01:45:49;0.40;;;0.40;;
27847;SDS011;15212;48.830;8.730;2023-12-20T01:48:17;0.40;;;0.40;;
27847;SDS011;15212;48.830;8.730;2023-12-20T01:50:47;0.80;;;0.40;;
27847;SDS011;15212;48.830;8.730;2023-12-20T01:53:16;0.30;;;0.30;;
27847;SDS011;15212;48.830;8.730;2023-12-20T01:55:47;0.50;;;0.40;;
27847;SDS011;15212;48.830;8.730;2023-12-20T01:58:18;0.35;;;0.35;;
27847;SDS011;15212;48.830;8.730;2023-12-20T02:00:47;0.42;;;0.42;;
27847;SDS011;15212;48.830;8.730;2023-12-20T02:03:16;0.30;;;0.30;;
27847;SDS011;15212;48.830;8.730;2023-12-20T02:05:45;1.90;;;0.70;;
27847;SDS011;15212;48.830;8.730;2023-12-20T02:08:15;0.75;;;0.50;;
27847;SDS011;15212;48.830;8.730;2023-12-20T02:10:43;0.82;;;0.50;;
27847;SDS011;15212;48.830;8.730;2023-12-20T02:13:12;1.15;;;0.50;;
27847;SDS011;15212;48.830;8.730;2023-12-20T02:15:40;0.40;;;0.40;;
27847;SDS011;15212;48.830;8.730;2023-12-20T02:18:09;0.82;;;0.50;;
27847;SDS011;15212;48.830;8.730;2023-12-20T02:20:39;0.53;;;0.40;;
27847;SDS011;15212;48.830;8.730;2023-12-20T02:23:08;0.60;;;0.40;;
27847;SDS011;15212;48.830;8.730;2023-12-20T02:25:35;0.40;;;0.40;;
27847;SDS011;15212;48.830;8.730;2023-12-20T02:28:03;0.62;;;0.50;;
27847;SDS011;15212;48.830;8.730;2023-12-20T02:30:33;0.50;;;0.50;;
27847;SDS011;15212;48.830;8.730;2023-12-20T02:33:01;0.60;;;0.50;;
27847;SDS011;15212;48.830;8.730;2023-12-20T02:35:34;0.50;;;0.50;;
27847;SDS011;15212;48.830;8.730;2023-12-20T02:38:03;0.40;;;0.40;;
27847;SDS011;15212;48.830;8.730;2023-12-20T02:40:31;0.45;;;0.45;;
27847;SDS011;15212;48.830;8.730;2023-12-20T02:43:00;0.55;;;0.55;;
27847;SDS011;15212;48.830;8.730;2023-12-20T02:45:28;0.60;;;0.42;;
27847;SDS011;15212;48.830;8.730;2023-12-20T02:47:57;0.98;;;0.50;;
27847;SDS011;15212;48.830;8.730;2023-12-20T02:50:25;0.95;;;0.60;;
27847;SDS011;15212;48.830;8.730;2023-12-20T02:52:53;1.05;;;0.55;;
27847;SDS011;15212;48.830;8.730;2023-12-20T02:55:22;0.47;;;0.47;;
27847;SDS011;15212;48.830;8.730;2023-12-20T02:57:50;0.53;;;0.50;;
27847;SDS011;15212;48.830;8.730;2023-12-20T03:00:18;1.05;;;0.50;;
27847;SDS011;15212;48.830;8.730;2023-12-20T03:02:47;0.70;;;0.60;;
27847;SDS011;15212;48.830;8.730;2023-12-20T03:05:15;0.50;;;0.50;;
27847;SDS011;15212;48.830;8.730;2023-12-20T03:07:44;0.42;;;0.42;;
27847;SDS011;15212;48.830;8.730;2023-12-20T03:10:12;1.10;;;0.62;;
27847;SDS011;15212;48.830;8.730;2023-12-20T03:12:41;0.50;;;0.50;;
27847;SDS011;15212;48.830;8.730;2023-12-20T03:15:10;1.32;;;0.60;;
27847;SDS011;15212;48.830;8.730;2023-12-20T03:17:38;0.50;;;0.50;;
27847;SDS011;15212;48.830;8.730;2023-12-20T03:20:07;0.40;;;0.40;;
27847;SDS011;15212;48.830;8.730;2023-12-20T03:22:36;0.55;;;0.42;;
27847;SDS011;15212;48.830;8.730;2023-12-20T03:25:04;0.50;;;0.50;;
27847;SDS011;15212;48.830;8.730;2023-12-20T03:27:33;1.27;;;0.50;;
27847;SDS011;15212;48.830;8.730;2023-12-20T03:30:04;0.53;;;0.50;;
27847;SDS011;15212;48.830;8.730;2023-12-20T03:32:33;1.60;;;0.88;;
27847;SDS011;15212;48.830;8.730;2023-12-20T03:35:02;0.60;;;0.50;;
27847;SDS011;15212;48.830;8.730;2023-12-20T03:37:30;5.05;;;0.60;;
27847;SDS011;15212;48.830;8.730;2023-12-20T03:39:59;0.72;;;0.57;;
27847;SDS011;15212;48.830;8.730;2023-12-20T03:42:27;1.62;;;0.60;;
27847;SDS011;15212;48.830;8.730;2023-12-20T03:44:56;1.00;;;0.50;;
27847;SDS011;15212;48.830;8.730;2023-12-20T03:47:25;0.93;;;0.50;;
27847;SDS011;15212;48.830;8.730;2023-12-20T03:49:53;1.67;;;0.50;;
27847;SDS011;15212;48.830;8.730;2023-12-20T03:52:21;0.47;;;0.42;;
27847;SDS011;15212;48.830;8.730;2023-12-20T03:54:50;0.70;;;0.62;;
27847;SDS011;15212;48.830;8.730;2023-12-20T03:57:18;0.70;;;0.60;;
27847;SDS011;15212;48.830;8.730;2023-12-20T03:59:46;0.50;;;0.50;;
27847;SDS011;15212;48.830;8.730;2023-12-20T04:02:15;0.90;;;0.60;;
27847;SDS011;15212;48.830;8.730;2023-12-20T04:04:44;0.40;;;0.40;;
27847;SDS011;15212;48.830;8.730;2023-12-20T04:07:12;0.93;;;0.50;;
27847;SDS011;15212;48.830;8.730;2023-12-20T04:09:40;0.40;;;0.40;;
27847;SDS011;15212;48.830;8.730;2023-12-20T04:12:09;0.68;;;0.60;;
27847;SDS011;15212;48.830;8.730;2023-12-20T04:14:37;0.55;;;0.55;;
27847;SDS011;15212;48.830;8.730;2023-12-20T04:17:06;1.40;;;0.50;;
27847;SDS011;15212;48.830;8.730;2023-12-20T04:19:35;0.50;;;0.50;;
27847;SDS011;15212;48.830;8.730;2023-12-20T04:22:03;0.65;;;0.50;;
27847;SDS011;15212;48.830;8.730;2023-12-20T04:24:31;0.40;;;0.40;;
27847;SDS011;15212;48.830;8.730;2023-12-20T04:27:00;0.50;;;0.50;;
27847;SDS011;15212;48.830;8.730;2023-12-20T04:29:29;0.60;;;0.40;;
27847;SDS011;15212;48.830;8.730;2023-12-20T04:31:57;0.50;;;0.50;;
27847;SDS011;15212;48.830;8.730;2023-12-20T04:34:26;0.40;;;0.40;;
27847;SDS011;15212;48.830;8.730;2023-12-20T04:36:54;0.62;;;0.62;;
27847;SDS011;15212;48.830;8.730;2023-12-20T04:39:23;0.50;;;0.50;;
27847;SDS011;15212;48.830;8.730;2023-12-20T04:41:51;0.70;;;0.70;;
27847;SDS011;15212;48.830;8.730;2023-12-20T04:44:20;0.90;;;0.70;;
27847;SDS011;15212;48.830;8.730;2023-12-20T04:46:49;1.25;;;0.70;;
27847;SDS011;15212;48.830;8.730;2023-12-20T04:49:17;0.62;;;0.62;;
27847;SDS011;15212;48.830;8.730;2023-12-20T04:51:46;1.12;;;0.88;;
27847;SDS011;15212;48.830;8.730;2023-12-20T04:54:15;1.20;;;0.90;;
27847;SDS011;15212;48.830;8.730;2023-12-20T04:56:43;1.10;;;1.00;;
27847;SDS011;15212;48.830;8.730;2023-12-20T04:59:12;1.00;;;0.93;;
27847;SDS011;15212;48.830;8.730;2023-12-20T05:01:41;0.80;;;0.80;;
27847;SDS011;15212;48.830;8.730;2023-12-20T05:04:09;2.58;;;1.00;;
27847;SDS011;15212;48.830;8.730;2023-12-20T05:06:37;6.00;;;2.92;;
27847;SDS011;15212;48.830;8.730;2023-12-20T05:09:06;1.00;;;0.80;;
27847;SDS011;15212;48.830;8.730;2023-12-20T05:11:35;0.90;;;0.80;;
27847;SDS011;15212;48.830;8.730;2023-12-20T05:14:03;1.02;;;0.70;;
27847;SDS011;15212;48.830;8.730;2023-12-20T05:16:31;1.67;;;0.90;;
27847;SDS011;15212;48.830;8.730;2023-12-20T05:19:00;0.85;;;0.82;;
27847;SDS011;15212;48.830;8.730;2023-12-20T05:21:30;0.98;;;0.80;;
27847;SDS011;15212;48.830;8.730;2023-12-20T05:23:59;1.12;;;1.02;;
27847;SDS011;15212;48.830;8.730;2023-12-20T05:26:27;0.85;;;0.85;;
27847;SDS011;15212;48.830;8.730;2023-12-20T05:28:56;2.22;;;1.35;;
27847;SDS011;15212;48.830;8.730;2023-12-20T05:31:24;2.87;;;1.70;;
27847;SDS011;15212;48.830;8.730;2023-12-20T05:33:53;1.35;;;1.12;;
27847;SDS011;15212;48.830;8.730;2023-12-20T05:36:21;2.15;;;1.22;;
27847;SDS011;15212;48.830;8.730;2023-12-20T05:38:49;2.77;;;1.00;;
27847;SDS011;15212;48.830;8.730;2023-12-20T05:41:19;1.50;;;1.07;;
27847;SDS011;15212;48.830;8.730;2023-12-20T05:43:47;1.20;;;0.90;;
27847;SDS011;15212;48.830;8.730;2023-12-20T05:46:16;1.00;;;0.90;;
27847;SDS011;15212;48.830;8.730;2023-12-20T05:48:44;4.58;;;2.75;;
27847;SDS011;15212;48.830;8.730;2023-12-20T05:51:13;2.27;;;1.40;;
27847;SDS011;15212;48.830;8.730;2023-12-20T05:53:41;5.03;;;1.10;;
27847;SDS011;15212;48.830;8.730;2023-12-20T05:56:10;1.80;;;1.35;;
27847;SDS011;15212;48.830;8.730;2023-12-20T05:58:38;1.25;;;1.15;;
27847;SDS011;15212;48.830;8.730;2023-12-20T06:01:07;1.52;;;1.02;;
27847;SDS011;15212;48.830;8.730;2023-12-20T06:03:35;1.57;;;1.00;;
27847;SDS011;15212;48.830;8.730;2023-12-20T06:06:05;1.92;;;1.32;;
27847;SDS011;15212;48.830;8.730;2023-12-20T06:08:35;1.37;;;1.10;;
27847;SDS011;15212;48.830;8.730;2023-12-20T06:11:04;1.30;;;1.00;;
27847;SDS011;15212;48.830;8.730;2023-12-20T06:13:32;1.80;;;1.17;;
27847;SDS011;15212;48.830;8.730;2023-12-20T06:16:01;2.33;;;1.52;;
27847;SDS011;15212;48.830;8.730;2023-12-20T06:18:33;1.92;;;1.60;;
27847;SDS011;15212;48.830;8.730;2023-12-20T06:21:02;2.00;;;1.72;;
27847;SDS011;15212;48.830;8.730;2023-12-20T06:23:33;2.62;;;1.82;;
27847;SDS011;15212;48.830;8.730;2023-12-20T06:26:01;2.60;;;2.02;;
27847;SDS011;15212;48.830;8.730;2023-12-20T06:28:30;4.55;;;2.42;;
27847;SDS011;15212;48.830;8.730;2023-12-20T06:30:58;3.37;;;2.40;;
27847;SDS011;15212;48.830;8.730;2023-12-20T06:33:26;3.80;;;2.90;;
27847;SDS011;15212;48.830;8.730;2023-12-20T06:35:57;4.67;;;2.55;;
27847;SDS011;15212;48.830;8.730;2023-12-20T06:38:25;4.20;;;3.10;;
27847;SDS011;15212;48.830;8.730;2023-12-20T06:40:54;4.78;;;3.40;;
27847;SDS011;15212;48.830;8.730;2023-12-20T06:43:24;7.22;;;4.30;;
27847;SDS011;15212;48.830;8.730;2023-12-20T06:45:52;6.35;;;4.33;;
27847;SDS011;15212;48.830;8.730;2023-12-20T06:48:20;7.25;;;4.05;;
27847;SDS011;15212;48.830;8.730;2023-12-20T06:50:49;3.55;;;2.85;;
27847;SDS011;15212;48.830;8.730;2023-12-20T06:53:17;4.33;;;3.30;;
27847;SDS011;15212;48.830;8.730;2023-12-20T06:55:46;6.00;;;3.20;;
27847;SDS011;15212;48.830;8.730;2023-12-20T06:58:15;4.00;;;3.17;;
27847;SDS011;15212;48.830;8.730;2023-12-20T07:00:43;4.95;;;3.55;;
27847;SDS011;15212;48.830;8.730;2023-12-20T07:03:12;4.97;;;3.40;;
27847;SDS011;15212;48.830;8.730;2023-12-20T07:05:40;7.62;;;4.28;;
27847;SDS011;15212;48.830;8.730;2023-12-20T07:08:08;9.55;;;4.67;;
27847;SDS011;15212;48.830;8.730;2023-12-20T07:10:38;6.15;;;4.62;;
27847;SDS011;15212;48.830;8.730;2023-12-20T07:13:07;8.15;;;5.00;;
27847;SDS011;15212;48.830;8.730;2023-12-20T07:15:35;7.90;;;4.55;;
27847;SDS011;15212;48.830;8.730;2023-12-20T07:18:04;9.38;;;4.78;;
27847;SDS011;15212;48.830;8.730;2023-12-20T07:20:33;7.45;;;4.90;;
27847;SDS011;15212;48.830;8.730;2023-12-20T07:23:01;9.73;;;4.72;;
27847;SDS011;15212;48.830;8.730;2023-12-20T07:25:30;7.70;;;5.08;;
27847;SDS011;15212;48.830;8.730;2023-12-20T07:27:58;10.48;;;5.20;;
27847;SDS011;15212;48.830;8.730;2023-12-20T07:30:26;8.00;;;5.25;;
27847;SDS011;15212;48.830;8.730;2023-12-20T07:32:55;10.40;;;5.58;;
27847;SDS011;15212;48.830;8.730;2023-12-20T07:35:23;10.68;;;6.35;;
27847;SDS011;15212;48.830;8.730;2023-12-20T07:37:52;9.65;;;5.78;;
27847;SDS011;15212;48.830;8.730;2023-12-20T07:40:20;9.38;;;6.58;;
27847;SDS011;15212;48.830;8.730;2023-12-20T07:42:49;9.10;;;6.40;;
27847;SDS011;15212;48.830;8.730;2023-12-20T07:45:18;12.23;;;6.40;;
27847;SDS011;15212;48.830;8.730;2023-12-20T07:47:46;7.65;;;5.25;;
27847;SDS011;15212;48.830;8.730;2023-12-20T07:50:15;8.33;;;5.05;;
27847;SDS011;15212;48.830;8.730;2023-12-20T07:52:44;9.68;;;5.58;;
27847;SDS011;15212;48.830;8.730;2023-12-20T07:55:12;8.33;;;5.58;;
27847;SDS011;15212;48.830;8.730;2023-12-20T07:57:41;8.43;;;5.20;;
27847;SDS011;15212;48.830;8.730;2023-12-20T08:00:09;9.75;;;5.05;;
27847;SDS011;15212;48.830;8.730;2023-12-20T08:02:39;9.80;;;4.40;;
27847;SDS011;15212;48.830;8.730;2023-12-20T08:05:07;7.70;;;4.80;;
27847;SDS011;15212;48.830;8.730;2023-12-20T08:07:35;6.55;;;4.75;;
27847;SDS011;15212;48.830;8.730;2023-12-20T08:10:04;9.95;;;4.10;;
27847;SDS011;15212;48.830;8.730;2023-12-20T08:12:33;7.00;;;4.80;;
27847;SDS011;15212;48.830;8.730;2023-12-20T08:15:02;8.38;;;4.28;;
27847;SDS011;15212;48.830;8.730;2023-12-20T08:17:30;10.03;;;4.72;;
27847;SDS011;15212;48.830;8.730;2023-12-20T08:19:59;7.55;;;4.03;;
27847;SDS011;15212;48.830;8.730;2023-12-20T08:22:27;6.78;;;3.72;;
27847;SDS011;15212;48.830;8.730;2023-12-20T08:24:56;9.78;;;3.85;;
27847;SDS011;15212;48.830;8.730;2023-12-20T08:27:24;6.10;;;3.80;;
27847;SDS011;15212;48.830;8.730;2023-12-20T08:29:53;9.25;;;3.58;;
27847;SDS011;15212;48.830;8.730;2023-12-20T08:32:21;12.98;;;3.90;;
27847;SDS011;15212;48.830;8.730;2023-12-20T08:34:54;7.65;;;3.90;;
27847;SDS011;15212;48.830;8.730;2023-12-20T08:37:22;8.15;;;3.05;;
27847;SDS011;15212;48.830;8.730;2023-12-20T08:39:51;9.23;;;3.22;;
27847;SDS011;15212;48.830;8.730;2023-12-20T08:42:19;4.58;;;2.75;;
27847;SDS011;15212;48.830;8.730;2023-12-20T08:44:47;6.08;;;2.42;;
27847;SDS011;15212;48.830;8.730;2023-12-20T08:47:16;6.10;;;2.58;;
27847;SDS011;15212;48.830;8.730;2023-12-20T08:49:45;5.85;;;2.27;;
27847;SDS011;15212;48.830;8.730;2023-12-20T08:52:14;6.03;;;3.00;;
27847;SDS011;15212;48.830;8.730;2023-12-20T08:54:42;7.08;;;2.62;;
27847;SDS011;15212;48.830;8.730;2023-12-20T08:57:10;9.25;;;2.10;;
27847;SDS011;15212;48.830;8.730;2023-12-20T08:59:39;5.53;;;2.30;;
27847;SDS011;15212;48.830;8.730;2023-12-20T09:02:07;6.87;;;2.02;;
27847;SDS011;15212;48.830;8.730;2023-12-20T09:04:36;8.33;;;2.20;;
27847;SDS011;15212;48.830;8.730;2023-12-20T09:07:05;10.15;;;2.33;;
27847;SDS011;15212;48.830;8.730;2023-12-20T09:09:33;7.20;;;2.00;;
27847;SDS011;15212;48.830;8.730;2023-12-20T09:12:01;11.68;;;2.20;;
27847;SDS011;15212;48.830;8.730;2023-12-20T09:14:30;6.60;;;2.30;;
27847;SDS011;15212;48.830;8.730;2023-12-20T09:16:59;9.75;;;2.50;;
27847;SDS011;15212;48.830;8.730;2023-12-20T09:19:29;6.65;;;2.20;;
27847;SDS011;15212;48.830;8.730;2023-12-20T09:21:57;7.17;;;2.20;;
27847;SDS011;15212;48.830;8.730;2023-12-20T09:24:25;11.38;;;2.40;;
27847;SDS011;15212;48.830;8.730;2023-12-20T09:26:54;8.80;;;2.20;;
27847;SDS011;15212;48.830;8.730;2023-12-20T09:29:22;12.30;;;2.35;;
27847;SDS011;15212;48.830;8.730;2023-12-20T09:31:51;10.23;;;1.80;;
27847;SDS011;15212;48.830;8.730;2023-12-20T09:34:19;9.03;;;2.12;;
27847;SDS011;15212;48.830;8.730;2023-12-20T09:36:48;9.28;;;2.45;;
27847;SDS011;15212;48.830;8.730;2023-12-20T09:39:17;10.18;;;2.30;;
27847;SDS011;15212;48.830;8.730;2023-12-20T09:41:59;7.15;;;2.35;;
27847;SDS011;15212;48.830;8.730;2023-12-20T09:44:29;8.88;;;2.20;;
27847;SDS011;15212;48.830;8.730;2023-12-20T09:47:02;10.45;;;2.55;;
27847;SDS011;15212;48.830;8.730;2023-12-20T09:49:32;8.73;;;2.40;;
27847;SDS011;15212;48.830;8.730;2023-12-20T09:52:01;6.20;;;2.42;;
27847;SDS011;15212;48.830;8.730;2023-12-20T09:54:31;8.50;;;2.60;;
27847;SDS011;15212;48.830;8.730;2023-12-20T09:56:59;9.38;;;3.00;;
27847;SDS011;15212;48.830;8.730;2023-12-20T09:59:27;8.43;;;2.58;;
27847;SDS011;15212;48.830;8.730;2023-12-20T10:01:56;9.83;;;3.20;;
27847;SDS011;15212;48.830;8.730;2023-12-20T10:04:25;12.35;;;3.70;;
27847;SDS011;15212;48.830;8.730;2023-12-20T10:06:53;10.25;;;3.20;;
27847;SDS011;15212;48.830;8.730;2023-12-20T10:09:22;12.35;;;3.00;;
27847;SDS011;15212;48.830;8.730;2023-12-20T10:11:54;7.30;;;2.58;;
27847;SDS011;15212;48.830;8.730;2023-12-20T10:14:23;10.88;;;3.05;;
27847;SDS011;15212;48.830;8.730;2023-12-20T10:16:51;8.28;;;2.80;;
27847;SDS011;15212;48.830;8.730;2023-12-20T10:19:21;11.15;;;2.60;;
27847;SDS011;15212;48.830;8.730;2023-12-20T10:21:49;8.83;;;2.45;;
27847;SDS011;15212;48.830;8.730;2023-12-20T10:24:18;7.33;;;2.70;;
27847;SDS011;15212;48.830;8.730;2023-12-20T10:26:46;9.30;;;2.50;;
27847;SDS011;15212;48.830;8.730;2023-12-20T10:29:15;9.80;;;2.70;;
27847;SDS011;15212;48.830;8.730;2023-12-20T10:31:43;7.80;;;2.70;;
27847;SDS011;15212;48.830;8.730;2023-12-20T10:34:11;5.53;;;2.30;;
27847;SDS011;15212;48.830;8.730;2023-12-20T10:36:40;9.98;;;2.65;;
27847;SDS011;15212;48.830;8.730;2023-12-20T10:39:08;9.83;;;2.52;;
27847;SDS011;15212;48.830;8.730;2023-12-20T10:41:38;10.00;;;3.08;;
27847;SDS011;15212;48.830;8.730;2023-12-20T10:44:08;13.32;;;2.87;;
27847;SDS011;15212;48.830;8.730;2023-12-20T10:46:38;14.25;;;3.30;;
27847;SDS011;15212;48.830;8.730;2023-12-20T10:49:09;12.28;;;2.50;;
27847;SDS011;15212;48.830;8.730;2023-12-20T10:51:38;12.28;;;3.17;;
27847;SDS011;15212;48.830;8.730;2023-12-20T10:54:06;11.48;;;2.77;;
27847;SDS011;15212;48.830;8.730;2023-12-20T10:56:35;7.90;;;2.52;;
27847;SDS011;15212;48.830;8.730;2023-12-20T10:59:05;11.30;;;2.27;;
27847;SDS011;15212;48.830;8.730;2023-12-20T11:01:38;10.08;;;3.05;;
27847;SDS011;15212;48.830;8.730;2023-12-20T11:04:08;6.25;;;2.33;;
27847;SDS011;15212;48.830;8.730;2023-12-20T11:06:48;7.25;;;2.50;;
27847;SDS011;15212;48.830;8.730;2023-12-20T11:09:25;11.15;;;2.72;;
27847;SDS011;15212;48.830;8.730;2023-12-20T11:12:21;8.70;;;2.02;;
27847;SDS011;15212;48.830;8.730;2023-12-20T11:14:54;9.03;;;2.37;;
27847;SDS011;15212;48.830;8.730;2023-12-20T11:17:26;14.07;;;2.30;;
27847;SDS011;15212;48.830;8.730;2023-12-20T11:22:31;6.70;;;2.10;;
27847;SDS011;15212;48.830;8.730;2023-12-20T11:25:04;9.10;;;2.80;;
27847;SDS011;15212;48.830;8.730;2023-12-20T11:27:41;13.28;;;2.60;;
27847;SDS011;15212;48.830;8.730;2023-12-20T11:30:11;6.42;;;2.20;;
27847;SDS011;15212;48.830;8.730;2023-12-20T11:32:42;11.75;;;2.52;;
27847;SDS011;15212;48.830;8.730;2023-12-20T11:37:47;7.58;;;2.22;;
27847;SDS011;15212;48.830;8.730;2023-12-20T11:40:16;7.08;;;2.20;;
27847;SDS011;15212;48.830;8.730;2023-12-20T11:42:45;9.70;;;2.40;;
27847;SDS011;15212;48.830;8.730;2023-12-20T11:45:21;13.20;;;2.00;;
27847;SDS011;15212;48.830;8.730;2023-12-20T11:47:52;9.38;;;1.90;;
27847;SDS011;15212;48.830;8.730;2023-12-20T11:50:23;6.70;;;2.08;;
27847;SDS011;15212;48.830;8.730;2023-12-20T11:52:52;9.10;;;2.00;;
27847;SDS011;15212;48.830;8.730;2023-12-20T11:55:22;9.58;;;2.27;;
27847;SDS011;15212;48.830;8.730;2023-12-20T11:57:51;12.25;;;2.30;;
27847;SDS011;15212;48.830;8.730;2023-12-20T12:00:19;8.48;;;2.35;;
27847;SDS011;15212;48.830;8.730;2023-12-20T12:02:57;6.03;;;2.42;;
27847;SDS011;15212;48.830;8.730;2023-12-20T12:05:28;11.00;;;2.12;;
27847;SDS011;15212;48.830;8.730;2023-12-20T12:07:58;10.85;;;2.17;;
27847;SDS011;15212;48.830;8.730;2023-12-20T12:10:27;9.30;;;1.90;;
27847;SDS011;15212;48.830;8.730;2023-12-20T12:12:56;8.63;;;2.42;;
27847;SDS011;15212;48.830;8.730;2023-12-20T12:15:25;10.50;;;2.20;;
27847;SDS011;15212;48.830;8.730;2023-12-20T12:17:54;10.90;;;2.45;;
27847;SDS011;15212;48.830;8.730;2023-12-20T12:20:23;11.38;;;2.20;;
27847;SDS011;15212;48.830;8.730;2023-12-20T12:22:58;6.03;;;2.10;;
27847;SDS011;15212;48.830;8.730;2023-12-20T12:25:32;11.53;;;2.52;;
27847;SDS011;15212;48.830;8.730;2023-12-20T12:28:03;14.53;;;2.50;;
27847;SDS011;15212;48.830;8.730;2023-12-20T12:30:31;14.65;;;2.35;;
27847;SDS011;15212;48.830;8.730;2023-12-20T12:33:00;12.25;;;2.55;;
27847;SDS011;15212;48.830;8.730;2023-12-20T12:35:29;5.25;;;1.60;;
27847;SDS011;15212;48.830;8.730;2023-12-20T12:37:58;14.33;;;2.50;;
27847;SDS011;15212;48.830;8.730;2023-12-20T12:40:28;11.10;;;1.82;;
27847;SDS011;15212;48.830;8.730;2023-12-20T12:42:57;13.13;;;2.27;;
27847;SDS011;15212;48.830;8.730;2023-12-20T12:45:25;10.30;;;1.75;;
27847;SDS011;15212;48.830;8.730;2023-12-20T12:47:54;9.18;;;2.40;;
27847;SDS011;15212;48.830;8.730;2023-12-20T12:50:22;12.80;;;2.50;;
27847;SDS011;15212;48.830;8.730;2023-12-20T12:52:50;14.30;;;2.05;;
27847;SDS011;15212;48.830;8.730;2023-12-20T12:55:19;8.93;;;2.08;;
27847;SDS011;15212;48.830;8.730;2023-12-20T12:57:47;9.03;;;1.82;;
27847;SDS011;15212;48.830;8.730;2023-12-20T13:00:16;8.95;;;1.82;;
27847;SDS011;15212;48.830;8.730;2023-12-20T13:02:45;8.60;;;2.00;;
27847;SDS011;15212;48.830;8.730;2023-12-20T13:05:14;12.00;;;2.55;;
27847;SDS011;15212;48.830;8.730;2023-12-20T13:07:43;8.00;;;1.92;;
27847;SDS011;15212;48.830;8.730;2023-12-20T13:10:12;11.95;;;1.92;;
27847;SDS011;15212;48.830;8.730;2023-12-20T13:12:42;5.42;;;2.10;;
27847;SDS011;15212;48.830;8.730;2023-12-20T13:15:11;8.08;;;1.98;;
27847;SDS011;15212;48.830;8.730;2023-12-20T13:17:40;8.90;;;2.17;;
27847;SDS011;15212;48.830;8.730;2023-12-20T13:20:08;7.37;;;2.25;;
27847;SDS011;15212;48.830;8.730;2023-12-20T13:22:37;7.28;;;1.95;;
27847;SDS011;15212;48.830;8.730;2023-12-20T13:25:05;12.53;;;3.02;;
27847;SDS011;15212;48.830;8.730;2023-12-20T13:27:34;14.95;;;2.60;;
27847;SDS011;15212;48.830;8.730;2023-12-20T13:30:03;13.98;;;2.30;;
27847;SDS011;15212;48.830;8.730;2023-12-20T13:32:33;11.48;;;2.80;;
27847;SDS011;15212;48.830;8.730;2023-12-20T13:35:01;8.35;;;2.30;;
27847;SDS011;15212;48.830;8.730;2023-12-20T13:37:30;12.37;;;2.47;;
27847;SDS011;15212;48.830;8.730;2023-12-20T13:39:58;7.20;;;2.37;;
27847;SDS011;15212;48.830;8.730;2023-12-20T13:42:28;13.00;;;2.50;;
27847;SDS011;15212;48.830;8.730;2023-12-20T13:44:57;10.85;;;2.10;;
27847;SDS011;15212;48.830;8.730;2023-12-20T13:47:25;6.00;;;2.08;;
27847;SDS011;15212;48.830;8.730;2023-12-20T13:49:55;9.98;;;2.20;;
27847;SDS011;15212;48.830;8.730;2023-12-20T13:52:23;6.75;;;2.27;;
27847;SDS011;15212;48.830;8.730;2023-12-20T13:54:51;8.18;;;2.55;;
27847;SDS011;15212;48.830;8.730;2023-12-20T13:57:20;13.25;;;2.35;;
27847;SDS011;15212;48.830;8.730;2023-12-20T13:59:48;11.08;;;2.40;;
27847;SDS011;15212;48.830;8.730;2023-12-20T14:02:17;9.45;;;2.25;;
27847;SDS011;15212;48.830;8.730;2023-12-20T14:04:45;10.10;;;2.27;;
27847;SDS011;15212;48.830;8.730;2023-12-20T14:07:13;15.20;;;3.10;;
27847;SDS011;15212;48.830;8.730;2023-12-20T14:09:42;9.73;;;2.47;;
27847;SDS011;15212;48.830;8.730;2023-12-20T14:12:11;12.13;;;2.50;;
27847;SDS011;15212;48.830;8.730;2023-12-20T14:14:40;11.70;;;2.83;;
27847;SDS011;15212;48.830;8.730;2023-12-20T14:17:10;15.65;;;2.52;;
27847;SDS011;15212;48.830;8.730;2023-12-20T14:19:39;8.83;;;2.42;;
27847;SDS011;15212;48.830;8.730;2023-12-20T14:22:07;14.28;;;3.10;;
27847;SDS011;15212;48.830;8.730;2023-12-20T14:24:35;9.28;;;2.65;;
27847;SDS011;15212;48.830;8.730;2023-12-20T14:27:04;16.42;;;2.80;;
27847;SDS011;15212;48.830;8.730;2023-12-20T14:29:32;16.17;;;2.17;;
27847;SDS011;15212;48.830;8.730;2023-12-20T14:32:01;10.32;;;2.40;;
27847;SDS011;15212;48.830;8.730;2023-12-20T14:34:30;12.98;;;2.10;;
27847;SDS011;15212;48.830;8.730;2023-12-20T14:36:59;9.98;;;2.80;;
27847;SDS011;15212;48.830;8.730;2023-12-20T14:39:27;11.60;;;2.47;;
27847;SDS011;15212;48.830;8.730;2023-12-20T14:41:56;12.33;;;2.27;;
27847;SDS011;15212;48.830;8.730;2023-12-20T14:44:24;9.88;;;2.50;;
27847;SDS011;15212;48.830;8.730;2023-12-20T14:46:52;8.98;;;2.37;;
27847;SDS011;15212;48.830;8.730;2023-12-20T14:49:21;11.35;;;2.50;;
27847;SDS011;15212;48.830;8.730;2023-12-20T14:51:49;11.95;;;2.40;;
27847;SDS011;15212;48.830;8.730;2023-12-20T14:54:18;12.00;;;1.98;;
27847;SDS011;15212;48.830;8.730;2023-12-20T14:56:46;12.75;;;2.17;;
27847;SDS011;15212;48.830;8.730;2023-12-20T14:59:15;12.30;;;2.83;;
27847;SDS011;15212;48.830;8.730;2023-12-20T15:01:44;12.70;;;3.17;;